Time;durP1;ratioP1;P1;durP2;ratioP2;P2;SDS_P1;SDS_P2;PMS_P1;PMS_P2;Temp;Humidity;BMP_temperature;BMP_pressure;BME280_temperature;BME280_humidity;BME280_pressure;Samples;Min_cycle;Max_cycle;Signal;HPM_P1;HPM_P2
2022/03/11 00:01:19;;;;;;;8.47;6.50;;;5.00;82.80;;;;;;5014591;28;20187;-70
2022/03/11 00:03:45;;;;;;;11.20;8.10;;;5.00;83.00;;;;;;5014751;28;20199;-70
2022/03/11 00:06:10;;;;;;;9.43;7.63;;;5.00;83.00;;;;;;5014805;28;20219;-70
2022/03/11 00:08:36;;;;;;;9.63;7.17;;;5.00;83.90;;;;;;5011370;28;20885;-70
2022/03/11 00:11:02;;;;;;;9.27;7.33;;;5.00;84.00;;;;;;5014368;28;20172;-70
2022/03/11 00:13:27;;;;;;;9.70;7.43;;;5.00;84.40;;;;;;5014532;28;20223;-70
2022/03/11 00:15:53;;;;;;;7.40;6.53;;;5.00;84.60;;;;;;5014487;28;20183;-70
2022/03/11 00:18:20;;;;;;;7.73;6.93;;;5.00;85.10;;;;;;5014414;28;20203;-70
2022/03/11 00:20:45;;;;;;;9.20;7.80;;;5.00;85.60;;;;;;5013614;28;20554;-70
2022/03/11 00:23:11;;;;;;;8.60;7.80;;;4.90;85.90;;;;;;5014363;28;20425;-71
2022/03/11 00:25:37;;;;;;;10.47;7.87;;;4.90;86.30;;;;;;5014370;28;20179;-71
2022/03/11 00:28:03;;;;;;;14.30;8.43;;;4.90;87.00;;;;;;5013019;28;20700;-70
2022/03/11 00:30:29;;;;;;;13.13;8.00;;;4.80;87.50;;;;;;5052075;23;20542;-69
2022/03/11 00:32:55;;;;;;;13.17;9.87;;;4.80;88.20;;;;;;5054247;28;20471;-69
2022/03/11 00:35:21;;;;;;;10.20;8.50;;;4.90;88.80;;;;;;5053972;28;20411;-69
2022/03/11 00:37:47;;;;;;;10.13;8.20;;;4.80;89.10;;;;;;5054567;28;20484;-69
2022/03/11 00:40:13;;;;;;;9.50;8.43;;;4.70;90.00;;;;;;5045475;28;20218;-69
2022/03/11 00:42:42;;;;;;;11.10;8.57;;;4.70;90.20;;;;;;5033878;28;20410;-69
2022/03/11 00:45:08;;;;;;;10.20;9.10;;;4.80;90.40;;;;;;5064971;22;20190;-71
2022/03/11 00:47:34;;;;;;;14.00;10.03;;;4.80;90.70;;;;;;5006725;28;20471;-70
2022/03/11 00:50:00;;;;;;;11.50;8.90;;;4.80;90.80;;;;;;5005851;28;20469;-70
2022/03/11 00:52:26;;;;;;;11.07;9.87;;;4.80;91.00;;;;;;5013134;28;20246;-70
2022/03/11 00:54:52;;;;;;;10.50;9.10;;;4.80;91.30;;;;;;5013993;28;20441;-70
2022/03/11 00:57:18;;;;;;;12.77;8.53;;;4.80;91.50;;;;;;5013738;28;20858;-70
2022/03/11 00:59:44;;;;;;;12.40;11.03;;;4.80;91.80;;;;;;5013800;28;20638;-70
2022/03/11 01:02:09;;;;;;;15.10;10.40;;;4.80;92.00;;;;;;5013102;28;20168;-70
2022/03/11 01:04:35;;;;;;;11.77;9.90;;;4.70;92.10;;;;;;5032609;22;20311;-69
2022/03/11 01:07:01;;;;;;;14.60;11.17;;;4.70;92.50;;;;;;5012793;28;20199;-70
2022/03/11 01:09:27;;;;;;;12.13;10.07;;;4.60;92.80;;;;;;5014180;28;20168;-69
2022/03/11 01:11:52;;;;;;;17.40;10.83;;;4.60;93.10;;;;;;5013027;28;20493;-69
2022/03/11 01:14:18;;;;;;;12.60;10.73;;;4.50;93.70;;;;;;5012735;28;20195;-69
2022/03/11 01:16:43;;;;;;;13.80;11.00;;;4.50;94.10;;;;;;5013951;28;20172;-69
2022/03/11 01:19:09;;;;;;;11.70;10.50;;;4.50;94.30;;;;;;5034060;23;20224;-70
2022/03/11 01:21:35;;;;;;;15.73;12.77;;;4.40;94.60;;;;;;5014285;28;20210;-70
2022/03/11 01:24:00;;;;;;;15.37;11.33;;;4.50;95.10;;;;;;5012604;28;20175;-70
2022/03/11 01:26:26;;;;;;;15.00;12.17;;;4.50;95.20;;;;;;5013676;28;20225;-70
2022/03/11 01:28:52;;;;;;;13.00;11.47;;;4.50;95.30;;;;;;5012770;28;20190;-70
2022/03/11 01:31:18;;;;;;;14.40;11.37;;;4.50;95.70;;;;;;5011760;28;20724;-69
2022/03/11 01:33:45;;;;;;;14.50;12.10;;;4.40;96.00;;;;;;5012916;28;20849;-69
2022/03/11 01:36:11;;;;;;;14.87;12.70;;;4.30;96.30;;;;;;5013362;28;20438;-69
2022/03/11 01:38:37;;;;;;;17.07;12.47;;;4.30;96.90;;;;;;5004755;28;20440;-70
2022/03/11 01:41:04;;;;;;;16.73;13.07;;;4.30;97.00;;;;;;4986651;28;20440;-70
2022/03/11 01:43:30;;;;;;;16.33;13.43;;;4.20;97.30;;;;;;4974073;28;20401;-70
2022/03/11 01:45:56;;;;;;;17.27;13.40;;;4.20;97.50;;;;;;4972728;28;20456;-69
2022/03/11 01:48:22;;;;;;;17.50;13.60;;;4.20;98.10;;;;;;4972756;28;20445;-69
2022/03/11 01:50:48;;;;;;;18.30;13.90;;;4.20;98.20;;;;;;4974281;28;20397;-70
2022/03/11 01:53:14;;;;;;;17.90;13.60;;;4.20;98.20;;;;;;4973956;28;20393;-69
2022/03/11 01:55:41;;;;;;;15.27;13.00;;;4.00;98.60;;;;;;5010511;28;20216;-70
2022/03/11 01:58:08;;;;;;;18.37;13.90;;;4.00;99.00;;;;;;5013156;28;20435;-70
2022/03/11 02:00:37;;;;;;;19.97;14.97;;;3.90;99.40;;;;;;5013251;28;20175;-70
2022/03/11 02:03:04;;;;;;;16.60;14.00;;;4.00;99.80;;;;;;5013142;28;20407;-70
2022/03/11 02:05:29;;;;;;;15.00;12.97;;;3.90;99.80;;;;;;5013160;28;20407;-70
2022/03/11 02:07:58;;;;;;;18.33;15.63;;;3.80;99.90;;;;;;5012815;28;20457;-70
2022/03/11 02:10:25;;;;;;;19.33;15.23;;;3.70;99.90;;;;;;5010798;28;20520;-70
2022/03/11 02:12:51;;;;;;;19.43;14.70;;;3.80;99.90;;;;;;5013240;28;20490;-70
2022/03/11 02:15:16;;;;;;;18.60;14.23;;;3.80;99.90;;;;;;5013122;28;20911;-70
2022/03/11 02:17:42;;;;;;;16.90;14.73;;;3.90;99.90;;;;;;5012849;28;20176;-70
2022/03/11 02:20:08;;;;;;;18.20;14.93;;;3.80;99.90;;;;;;5013269;28;20215;-70
2022/03/11 02:22:38;;;;;;;20.70;16.10;;;3.80;99.90;;;;;;5013376;28;20180;-70
2022/03/11 02:25:08;;;;;;;19.97;15.47;;;3.70;99.90;;;;;;5012760;28;20414;-70
2022/03/11 02:27:38;;;;;;;19.10;15.03;;;3.70;99.90;;;;;;5012889;28;20450;-70
2022/03/11 02:30:13;;;;;;;22.03;16.77;;;3.70;99.90;;;;;;5013148;28;20435;-70
2022/03/11 02:32:39;;;;;;;18.10;15.97;;;3.50;99.90;;;;;;5018019;28;20383;-70
2022/03/11 02:35:05;;;;;;;23.83;16.73;;;3.50;99.90;;;;;;5022641;28;20907;-70
2022/03/11 02:37:31;;;;;;;20.80;17.10;;;3.50;99.90;;;;;;5022891;28;20407;-70
2022/03/11 02:39:57;;;;;;;23.40;17.33;;;3.50;99.90;;;;;;5028353;23;20908;-69
2022/03/11 02:42:22;;;;;;;20.73;16.17;;;3.50;99.90;;;;;;5005884;28;20177;-71
2022/03/11 02:44:48;;;;;;;26.63;18.33;;;3.50;99.90;;;;;;4997092;28;20175;-70
2022/03/11 02:47:13;;;;;;;19.73;17.07;;;3.30;99.90;;;;;;4997394;28;20239;-69
2022/03/11 02:49:39;;;;;;;22.37;17.83;;;3.40;99.90;;;;;;4989690;28;20284;-69
2022/03/11 02:52:05;;;;;;;23.90;17.00;;;3.40;99.90;;;;;;4977973;28;20173;-69
2022/03/11 02:54:30;;;;;;;20.70;16.53;;;3.30;99.90;;;;;;5012499;23;20212;-70
2022/03/11 02:56:56;;;;;;;20.30;15.90;;;3.40;99.90;;;;;;5011985;28;20267;-70
2022/03/11 02:59:22;;;;;;;25.87;17.80;;;3.50;99.90;;;;;;5015913;28;20172;-70
2022/03/11 03:01:47;;;;;;;26.67;18.87;;;3.40;99.90;;;;;;5015435;28;20164;-70
2022/03/11 03:04:13;;;;;;;21.20;17.60;;;3.40;99.90;;;;;;5015734;28;20175;-70
2022/03/11 03:06:39;;;;;;;20.00;16.70;;;3.50;99.90;;;;;;5015950;28;20321;-70
2022/03/11 03:09:05;;;;;;;22.83;17.87;;;3.60;99.90;;;;;;5015143;28;20461;-70
2022/03/11 03:11:31;;;;;;;20.73;17.33;;;3.60;99.90;;;;;;5015332;28;20761;-70
2022/03/11 03:13:56;;;;;;;18.50;16.00;;;3.60;99.90;;;;;;5038834;22;20178;-69
2022/03/11 03:16:22;;;;;;;23.73;17.67;;;3.70;99.90;;;;;;5014798;28;20184;-69
2022/03/11 03:18:47;;;;;;;21.97;17.27;;;3.70;99.90;;;;;;5016107;28;20652;-69
2022/03/11 03:21:13;;;;;;;22.40;17.77;;;3.80;99.90;;;;;;5015911;28;20204;-69
2022/03/11 03:23:39;;;;;;;21.63;17.17;;;3.80;99.90;;;;;;5015936;28;20255;-69
2022/03/11 03:26:04;;;;;;;23.07;18.10;;;3.70;99.90;;;;;;4996570;28;20168;-70
2022/03/11 03:28:30;;;;;;;24.40;18.63;;;3.70;99.90;;;;;;5027996;23;20250;-70
2022/03/11 03:30:55;;;;;;;22.33;19.07;;;3.70;99.90;;;;;;5015072;28;20187;-70
2022/03/11 03:33:21;;;;;;;25.07;19.30;;;3.60;99.90;;;;;;5014512;28;20310;-70
2022/03/11 03:35:47;;;;;;;22.33;19.43;;;3.60;99.90;;;;;;5015653;28;20171;-70
2022/03/11 03:38:12;;;;;;;24.53;18.90;;;3.50;99.90;;;;;;5023332;28;20195;-70
2022/03/11 03:40:38;;;;;;;23.37;19.40;;;3.50;99.90;;;;;;5034746;28;20257;-69
2022/03/11 03:43:03;;;;;;;22.70;19.33;;;3.40;99.90;;;;;;5034686;28;20181;-69
2022/03/11 03:45:31;;;;;;;23.60;19.03;;;3.40;99.90;;;;;;5035048;28;20174;-69
2022/03/11 03:47:56;;;;;;;27.10;20.03;;;3.10;99.90;;;;;;5033390;28;20207;-70
2022/03/11 03:50:22;;;;;;;23.97;20.60;;;3.10;99.90;;;;;;5035069;28;20930;-70
2022/03/11 03:52:48;;;;;;;24.03;19.80;;;3.10;99.90;;;;;;5022430;28;20542;-70
2022/03/11 03:55:13;;;;;;;24.67;18.97;;;3.20;99.90;;;;;;5026151;28;20167;-70
2022/03/11 03:57:39;;;;;;;28.53;21.10;;;3.20;99.90;;;;;;5032096;28;20198;-70
2022/03/11 04:00:06;;;;;;;24.80;20.27;;;2.80;99.90;;;;;;5031224;28;20504;-70
2022/03/11 04:02:32;;;;;;;27.90;21.13;;;3.00;99.90;;;;;;5014887;28;20171;-70
2022/03/11 04:04:58;;;;;;;28.50;21.43;;;3.00;99.90;;;;;;5014855;28;20417;-70
2022/03/11 04:07:24;;;;;;;28.13;20.10;;;3.10;99.90;;;;;;5014898;28;20439;-70
2022/03/11 04:09:50;;;;;;;25.47;20.10;;;3.10;99.90;;;;;;5013477;28;20427;-70
2022/03/11 04:12:15;;;;;;;27.70;21.30;;;3.10;99.90;;;;;;5014659;28;20953;-70
2022/03/11 04:14:42;;;;;;;25.20;20.10;;;3.00;99.90;;;;;;5013543;28;20175;-70
2022/03/11 04:17:07;;;;;;;27.97;20.57;;;2.90;99.90;;;;;;5013370;28;20183;-70
2022/03/11 04:19:33;;;;;;;25.40;20.67;;;2.90;99.90;;;;;;5014540;28;20927;-70
2022/03/11 04:21:59;;;;;;;27.17;21.20;;;3.10;99.90;;;;;;5014984;28;20177;-70
2022/03/11 04:24:25;;;;;;;25.97;20.57;;;3.10;99.90;;;;;;5014637;28;20534;-70
2022/03/11 04:26:50;;;;;;;24.10;19.40;;;3.10;99.90;;;;;;5014207;28;20196;-70
2022/03/11 04:29:16;;;;;;;25.10;19.60;;;3.10;99.90;;;;;;5014295;28;20206;-70
2022/03/11 04:31:41;;;;;;;23.80;18.37;;;3.10;99.90;;;;;;5013078;28;20172;-70
2022/03/11 04:34:07;;;;;;;25.03;20.30;;;3.10;99.90;;;;;;5014644;28;20181;-70
2022/03/11 04:36:33;;;;;;;26.00;21.07;;;3.10;99.90;;;;;;5014203;28;20163;-70
2022/03/11 04:39:00;;;;;;;29.13;20.93;;;3.20;99.90;;;;;;5014114;28;20709;-70
2022/03/11 04:41:26;;;;;;;24.00;19.10;;;3.20;99.90;;;;;;5013555;28;20183;-70
2022/03/11 04:43:52;;;;;;;28.83;20.30;;;3.20;99.90;;;;;;5012766;28;20419;-70
2022/03/11 04:46:17;;;;;;;23.40;20.13;;;3.10;99.90;;;;;;5013900;28;20172;-70
2022/03/11 04:48:46;;;;;;;26.90;20.70;;;3.20;99.90;;;;;;5013700;28;20430;-70
2022/03/11 04:51:13;;;;;;;24.87;19.43;;;3.30;99.90;;;;;;5014231;28;20558;-70
2022/03/11 04:53:39;;;;;;;27.20;18.97;;;3.40;99.90;;;;;;5013962;28;20398;-70
2022/03/11 04:56:05;;;;;;;23.00;16.80;;;3.20;99.90;;;;;;4999273;28;20416;-70
2022/03/11 04:58:30;;;;;;;25.03;18.07;;;3.30;99.90;;;;;;4994569;28;20653;-70
2022/03/11 05:00:56;;;;;;;23.03;18.20;;;3.30;99.90;;;;;;4994542;28;20165;-70
2022/03/11 05:03:21;;;;;;;27.80;19.27;;;3.00;99.90;;;;;;4994248;28;20164;-69
2022/03/11 05:05:47;;;;;;;21.40;17.10;;;3.00;99.90;;;;;;4992836;28;20171;-70
2022/03/11 05:08:12;;;;;;;24.10;18.37;;;3.00;99.90;;;;;;4994044;28;20205;-70
2022/03/11 05:10:38;;;;;;;22.13;18.33;;;3.10;99.90;;;;;;5004895;28;20637;-70
2022/03/11 05:13:03;;;;;;;25.80;19.77;;;3.10;99.90;;;;;;5013937;28;20176;-70
2022/03/11 05:15:29;;;;;;;24.83;18.13;;;3.00;99.90;;;;;;5013815;28;20540;-70
2022/03/11 05:17:55;;;;;;;22.60;17.50;;;3.00;99.90;;;;;;5013579;28;20611;-70
2022/03/11 05:20:21;;;;;;;24.17;18.83;;;3.00;99.90;;;;;;5012225;28;20178;-69
2022/03/11 05:22:47;;;;;;;20.33;17.20;;;3.00;99.90;;;;;;5013767;28;20410;-69
2022/03/11 05:25:13;;;;;;;21.53;17.37;;;2.90;99.90;;;;;;5009770;28;20256;-69
2022/03/11 05:27:38;;;;;;;23.90;17.90;;;2.90;99.90;;;;;;5008308;28;20231;-69
2022/03/11 05:30:06;;;;;;;20.33;17.20;;;2.90;99.90;;;;;;5010962;28;20427;-70
2022/03/11 05:32:31;;;;;;;23.90;18.17;;;2.90;99.90;;;;;;5011080;28;20171;-69
2022/03/11 05:34:57;;;;;;;21.27;18.10;;;2.90;99.90;;;;;;5012319;28;20419;-70
2022/03/11 05:37:22;;;;;;;19.73;16.17;;;2.90;99.90;;;;;;5013440;28;20202;-70
2022/03/11 05:39:48;;;;;;;24.10;16.70;;;2.90;99.90;;;;;;5011827;28;20205;-70
2022/03/11 05:42:14;;;;;;;22.27;18.20;;;2.80;99.90;;;;;;5012553;28;20252;-69
2022/03/11 05:44:39;;;;;;;20.50;16.63;;;2.80;99.90;;;;;;5011956;28;20183;-69
2022/03/11 05:47:05;;;;;;;24.13;18.03;;;2.60;99.90;;;;;;5013221;28;20190;-69
2022/03/11 05:49:31;;;;;;;24.30;18.23;;;2.60;99.90;;;;;;5012146;28;20196;-69
2022/03/11 05:51:56;;;;;;;25.47;17.00;;;2.60;99.90;;;;;;5013150;28;20225;-69
2022/03/11 05:54:22;;;;;;;22.73;18.00;;;2.50;99.90;;;;;;5013181;28;20226;-69
2022/03/11 05:56:54;;;;;;;27.90;20.70;;;2.40;99.90;;;;;;5012202;28;20249;-69
2022/03/11 05:59:19;;;;;;;26.43;19.27;;;2.50;99.90;;;;;;5012909;28;20188;-69
2022/03/11 06:01:45;;;;;;;24.47;19.20;;;2.30;99.90;;;;;;5011807;28;20923;-70
2022/03/11 06:04:11;;;;;;;23.77;18.77;;;2.30;99.90;;;;;;5012948;28;20269;-69
2022/03/11 06:06:37;;;;;;;24.23;18.07;;;2.40;99.90;;;;;;5015900;28;20184;-69
2022/03/11 06:09:03;;;;;;;22.97;17.10;;;2.40;99.90;;;;;;5017239;28;20424;-69
2022/03/11 06:11:29;;;;;;;23.80;18.93;;;2.40;99.90;;;;;;5014604;28;20419;-69
2022/03/11 06:13:54;;;;;;;22.90;16.70;;;2.50;99.90;;;;;;5017176;28;20305;-69
2022/03/11 06:16:20;;;;;;;19.73;16.53;;;2.50;99.90;;;;;;5016968;28;20410;-70
2022/03/11 06:18:46;;;;;;;24.63;17.70;;;2.60;99.90;;;;;;5016800;28;20184;-69
2022/03/11 06:21:11;;;;;;;19.90;15.87;;;2.50;99.90;;;;;;5016739;28;20847;-69
2022/03/11 06:23:37;;;;;;;20.17;15.60;;;2.60;99.90;;;;;;5015214;28;20221;-69
2022/03/11 06:26:04;;;;;;;18.50;14.50;;;2.60;99.90;;;;;;5015591;28;20186;-70
2022/03/11 06:28:30;;;;;;;22.27;16.20;;;2.50;99.90;;;;;;5016661;28;20475;-69
2022/03/11 06:30:56;;;;;;;19.00;14.80;;;2.60;99.90;;;;;;5017138;28;20399;-70
2022/03/11 06:33:22;;;;;;;17.03;14.60;;;2.40;99.90;;;;;;5017153;28;20406;-70
2022/03/11 06:35:48;;;;;;;21.20;15.13;;;2.60;99.90;;;;;;5016820;28;20645;-71
2022/03/11 06:38:14;;;;;;;17.30;13.03;;;2.70;99.90;;;;;;5016725;28;20238;-71
2022/03/11 06:40:39;;;;;;;21.90;15.83;;;2.80;99.90;;;;;;5016446;28;20893;-70
2022/03/11 06:43:05;;;;;;;18.70;13.57;;;2.80;99.90;;;;;;5017353;28;20175;-69
2022/03/11 06:45:31;;;;;;;22.17;14.77;;;2.80;99.90;;;;;;5015073;28;20262;-71
2022/03/11 06:47:56;;;;;;;19.60;14.50;;;2.80;99.90;;;;;;5026746;28;20210;-69
2022/03/11 06:50:22;;;;;;;17.47;13.53;;;2.90;99.90;;;;;;5024650;28;20175;-71
2022/03/11 06:52:48;;;;;;;14.30;12.47;;;3.00;99.90;;;;;;5016236;28;20175;-70
2022/03/11 06:55:14;;;;;;;16.00;12.50;;;3.00;99.90;;;;;;5016197;28;20166;-70
2022/03/11 06:57:40;;;;;;;23.20;17.20;;;3.10;99.90;;;;;;5007849;28;20436;-70
2022/03/11 07:00:08;;;;;;;16.43;10.30;;;3.10;99.90;;;;;;4996258;28;20491;-70
2022/03/11 07:02:36;;;;;;;17.70;12.40;;;3.10;98.20;;;;;;4996593;28;20236;-70
2022/03/11 07:05:05;;;;;;;16.03;11.50;;;3.20;98.30;;;;;;5014818;28;20415;-70
2022/03/11 07:07:33;;;;;;;13.83;11.03;;;3.30;98.60;;;;;;5016303;28;20457;-70
2022/03/11 07:10:00;;;;;;;12.80;10.30;;;3.40;98.10;;;;;;5015273;28;20423;-71
2022/03/11 07:12:27;;;;;;;16.83;11.50;;;3.50;97.70;;;;;;5015834;28;20406;-71
2022/03/11 07:14:52;;;;;;;15.20;11.03;;;3.60;97.60;;;;;;5016311;28;20399;-69
2022/03/11 07:17:18;;;;;;;13.90;10.20;;;3.70;97.10;;;;;;5015072;28;20410;-71
2022/03/11 07:19:44;;;;;;;12.53;9.73;;;3.90;96.80;;;;;;5015298;28;20546;-71
2022/03/11 07:22:09;;;;;;;18.30;10.47;;;4.00;96.00;;;;;;5016083;28;20214;-70
2022/03/11 07:24:35;;;;;;;11.23;9.23;;;4.10;95.20;;;;;;5015802;28;20621;-69
2022/03/11 07:27:00;;;;;;;12.90;10.80;;;4.20;94.00;;;;;;5015020;28;20195;-69
2022/03/11 07:29:26;;;;;;;13.03;9.93;;;4.30;93.90;;;;;;5015368;28;20210;-70
2022/03/11 07:31:52;;;;;;;14.30;10.30;;;4.30;93.30;;;;;;5016274;28;20524;-70
2022/03/11 07:34:17;;;;;;;12.80;10.00;;;4.40;92.50;;;;;;5015447;28;20169;-69
2022/03/11 07:36:43;;;;;;;10.50;9.20;;;4.40;92.20;;;;;;5015793;28;20203;-70
2022/03/11 07:39:10;;;;;;;14.73;10.90;;;4.40;91.70;;;;;;5014415;28;20223;-70
2022/03/11 07:41:36;;;;;;;12.87;9.53;;;4.50;91.30;;;;;;5014966;28;20414;-70
2022/03/11 07:44:03;;;;;;;10.23;8.67;;;4.70;91.20;;;;;;5014191;28;20473;-70
2022/03/11 07:46:30;;;;;;;12.17;9.00;;;4.80;91.20;;;;;;5014844;28;20617;-69
2022/03/11 07:48:55;;;;;;;10.70;9.17;;;5.00;90.60;;;;;;5014668;28;20443;-70
2022/03/11 07:51:22;;;;;;;16.47;10.60;;;5.10;90.40;;;;;;5014844;28;20749;-70
2022/03/11 07:53:47;;;;;;;13.00;9.30;;;5.30;90.30;;;;;;5014141;28;20542;-70
2022/03/11 07:56:14;;;;;;;13.07;10.70;;;5.30;89.70;;;;;;5015238;28;20411;-72
2022/03/11 07:58:41;;;;;;;11.07;10.00;;;5.50;90.20;;;;;;5015054;28;20192;-70
2022/03/11 08:01:09;;;;;;;9.47;8.50;;;5.30;87.60;;;;;;5015442;28;20399;-70
2022/03/11 08:03:36;;;;;;;18.33;10.03;;;5.30;87.00;;;;;;5014839;28;20946;-70
2022/03/11 08:06:03;;;;;;;11.10;9.27;;;5.40;88.00;;;;;;5013391;28;20986;-70
2022/03/11 08:08:28;;;;;;;14.33;10.30;;;5.60;87.80;;;;;;5014910;28;20462;-69
2022/03/11 08:10:54;;;;;;;15.13;11.03;;;5.60;88.20;;;;;;5014500;28;20405;-70
2022/03/11 08:13:21;;;;;;;15.47;11.53;;;5.70;88.60;;;;;;5014592;28;20179;-69
2022/03/11 08:15:46;;;;;;;12.63;10.57;;;5.70;87.20;;;;;;5014617;28;20168;-70
2022/03/11 08:18:12;;;;;;;15.87;10.97;;;5.80;86.90;;;;;;5014507;28;20485;-70
2022/03/11 08:20:38;;;;;;;14.77;11.60;;;6.00;86.40;;;;;;5014085;28;20660;-70
2022/03/11 08:23:04;;;;;;;13.60;11.00;;;6.00;86.20;;;;;;5014732;28;20168;-69
2022/03/11 08:25:30;;;;;;;14.73;11.07;;;6.00;86.70;;;;;;5012617;28;20273;-69
2022/03/11 08:27:57;;;;;;;12.97;11.43;;;6.20;85.80;;;;;;5014102;28;20207;-69
2022/03/11 08:30:23;;;;;;;14.70;11.10;;;6.10;86.10;;;;;;5013300;28;20395;-68
2022/03/11 08:32:49;;;;;;;14.70;11.13;;;6.10;86.30;;;;;;5014385;28;20399;-70
2022/03/11 08:35:15;;;;;;;14.33;11.60;;;6.20;86.60;;;;;;5014509;28;20403;-70
2022/03/11 08:37:41;;;;;;;17.80;12.77;;;6.20;86.30;;;;;;5014006;28;20703;-70
2022/03/11 08:40:09;;;;;;;16.40;12.47;;;6.00;86.60;;;;;;5015792;28;20905;-69
2022/03/11 08:42:35;;;;;;;14.70;11.73;;;5.90;87.10;;;;;;5015863;28;20450;-70
2022/03/11 08:45:02;;;;;;;16.83;12.40;;;6.00;87.30;;;;;;5015779;28;20419;-70
2022/03/11 08:47:28;;;;;;;15.57;12.80;;;6.10;87.10;;;;;;5015739;28;20466;-70
2022/03/11 08:49:54;;;;;;;14.50;12.33;;;5.90;86.50;;;;;;5014543;28;20414;-69
2022/03/11 08:52:21;;;;;;;14.10;11.10;;;6.00;85.90;;;;;;5013617;28;20407;-69
2022/03/11 08:54:46;;;;;;;15.23;12.00;;;6.10;85.70;;;;;;5013847;28;20399;-69
2022/03/11 08:57:12;;;;;;;14.93;12.10;;;6.10;85.80;;;;;;5013273;28;20822;-69
2022/03/11 08:59:38;;;;;;;14.47;11.20;;;6.20;86.60;;;;;;5013583;28;20193;-69
2022/03/11 09:02:07;;;;;;;13.70;12.03;;;6.30;85.70;;;;;;5009173;28;20542;-69
2022/03/11 09:04:36;;;;;;;14.37;10.63;;;6.30;85.70;;;;;;4994246;28;20188;-69
2022/03/11 09:07:03;;;;;;;14.30;11.10;;;6.50;85.80;;;;;;5010360;28;20486;-69
2022/03/11 09:09:29;;;;;;;16.00;11.37;;;6.60;84.80;;;;;;5013702;28;20433;-70
2022/03/11 09:11:55;;;;;;;12.07;10.83;;;6.50;85.60;;;;;;5012298;28;20430;-70
2022/03/11 09:14:20;;;;;;;13.30;11.60;;;6.60;84.50;;;;;;5013750;28;20457;-70
2022/03/11 09:16:46;;;;;;;14.10;11.43;;;6.70;84.60;;;;;;5014025;28;20619;-70
2022/03/11 09:19:13;;;;;;;12.93;10.27;;;6.70;84.10;;;;;;5013252;28;20613;-70
2022/03/11 09:21:39;;;;;;;21.60;11.30;;;6.70;84.20;;;;;;5013330;28;20758;-70
2022/03/11 09:24:05;;;;;;;13.27;11.87;;;6.80;84.50;;;;;;5013319;28;20421;-70
2022/03/11 09:26:30;;;;;;;13.37;11.13;;;6.70;83.70;;;;;;5012566;28;20707;-69
2022/03/11 09:28:56;;;;;;;14.20;11.00;;;7.00;83.60;;;;;;5021793;22;20489;-70
2022/03/11 09:31:21;;;;;;;11.93;10.20;;;7.20;84.00;;;;;;5010908;28;20175;-70
2022/03/11 09:33:47;;;;;;;11.97;10.30;;;7.30;82.80;;;;;;5013843;28;20177;-70
2022/03/11 09:36:13;;;;;;;12.70;10.50;;;7.40;82.20;;;;;;5013495;28;20168;-69
2022/03/11 09:38:38;;;;;;;17.10;11.27;;;7.60;81.50;;;;;;5013870;28;20279;-69
2022/03/11 09:41:06;;;;;;;14.47;10.40;;;7.60;80.50;;;;;;5013388;28;20199;-69
2022/03/11 09:43:32;;;;;;;13.07;9.90;;;7.50;79.70;;;;;;5011942;28;20177;-70
2022/03/11 09:45:58;;;;;;;18.67;11.80;;;7.50;80.00;;;;;;5013898;28;20956;-70
2022/03/11 09:48:25;;;;;;;11.90;9.67;;;7.70;79.40;;;;;;5013502;28;20460;-70
2022/03/11 09:50:51;;;;;;;16.67;14.30;;;7.90;79.20;;;;;;5013547;28;20414;-70
2022/03/11 09:53:17;;;;;;;14.00;10.57;;;8.00;78.30;;;;;;5011232;28;20426;-70
2022/03/11 09:55:44;;;;;;;12.57;9.60;;;8.20;77.00;;;;;;5011826;28;20432;-70
2022/03/11 09:58:10;;;;;;;11.43;10.23;;;8.30;77.00;;;;;;5013545;28;20484;-70
2022/03/11 10:00:37;;;;;;;13.80;9.93;;;8.30;76.70;;;;;;5013496;28;20782;-70
2022/03/11 10:03:03;;;;;;;12.00;9.67;;;8.40;76.00;;;;;;5013357;28;20403;-70
2022/03/11 10:05:50;;;;;;;12.63;10.83;;;8.30;76.20;;;;;;5013556;28;20406;-70
2022/03/11 10:08:29;;;;;;;12.93;9.70;;;8.40;76.30;;;;;;5011742;28;20457;-70
2022/03/11 10:10:55;;;;;;;14.00;10.40;;;8.60;76.70;;;;;;5012361;28;20423;-71
2022/03/11 10:13:20;;;;;;;13.33;10.23;;;8.90;74.70;;;;;;5013134;28;20421;-71
2022/03/11 10:15:46;;;;;;;13.40;10.37;;;9.00;75.30;;;;;;5013215;28;20680;-70
2022/03/11 10:18:12;;;;;;;15.90;10.80;;;9.10;74.70;;;;;;5012161;28;20622;-70
2022/03/11 10:20:38;;;;;;;11.63;10.00;;;9.10;73.70;;;;;;5013222;28;20213;-71
2022/03/11 10:23:11;;;;;;;13.07;10.80;;;9.20;73.40;;;;;;5013485;28;20406;-71
2022/03/11 10:25:37;;;;;;;11.90;9.90;;;9.40;73.10;;;;;;5012972;28;20153;-70
2022/03/11 10:28:05;;;;;;;13.00;10.07;;;9.30;72.20;;;;;;5012637;28;20438;-70
2022/03/11 10:30:38;;;;;;;11.73;10.47;;;9.50;73.00;;;;;;5013299;28;20802;-72
2022/03/11 10:33:13;;;;;;;13.40;10.00;;;9.60;72.70;;;;;;5013382;28;20472;-69
2022/03/11 10:35:48;;;;;;;12.97;9.80;;;9.50;71.90;;;;;;5013393;28;20422;-69
2022/03/11 10:38:20;;;;;;;11.37;10.17;;;9.50;72.00;;;;;;5011680;28;20462;-70
2022/03/11 10:40:59;;;;;;;13.50;11.00;;;9.70;72.20;;;;;;5012772;28;20419;-71
2022/03/11 10:43:25;;;;;;;13.30;10.20;;;10.00;71.40;;;;;;5013206;28;20468;-71
2022/03/11 10:45:56;;;;;;;14.10;10.50;;;10.20;69.80;;;;;;5013251;28;20484;-71
2022/03/11 10:48:48;;;;;;;16.80;10.40;;;10.10;69.00;;;;;;5012974;28;20456;-71
2022/03/11 10:51:31;;;;;;;14.80;10.37;;;10.10;69.20;;;;;;5012834;28;20458;-71
2022/03/11 10:53:59;;;;;;;12.37;10.90;;;10.30;69.40;;;;;;5012419;28;20396;-69
2022/03/11 10:56:35;;;;;;;14.50;10.63;;;10.30;69.00;;;;;;5016098;28;20479;-71
2022/03/11 10:59:22;;;;;;;13.07;11.67;;;10.40;68.60;;;;;;5016442;28;20426;-70
2022/03/11 11:01:51;;;;;;;13.50;11.20;;;10.50;68.90;;;;;;5016907;28;20747;-71
2022/03/11 11:04:17;;;;;;;11.37;10.17;;;10.80;68.20;;;;;;5016414;28;20458;-71
2022/03/11 11:06:44;;;;;;;14.70;11.67;;;10.90;67.10;;;;;;5016465;28;20454;-71
2022/03/11 11:09:13;;;;;;;14.60;11.43;;;11.10;67.10;;;;;;5016313;28;20480;-71
2022/03/11 11:11:40;;;;;;;16.20;12.10;;;11.20;66.70;;;;;;5015052;28;20430;-71
2022/03/11 11:14:07;;;;;;;12.40;10.83;;;11.10;66.10;;;;;;5016138;28;20487;-71
2022/03/11 11:16:40;;;;;;;12.83;10.80;;;11.30;66.20;;;;;;5015939;28;20941;-71
2022/03/11 11:19:14;;;;;;;13.57;11.00;;;11.60;66.50;;;;;;5014677;28;20461;-70
2022/03/11 11:21:42;;;;;;;14.80;10.93;;;11.90;65.30;;;;;;5015502;28;20434;-69
2022/03/11 11:24:22;;;;;;;25.57;11.60;;;12.60;64.20;;;;;;5015532;28;20482;-68
2022/03/11 11:26:53;;;;;;;15.43;12.17;;;13.80;61.40;;;;;;5014648;28;20454;-70
2022/03/11 11:29:22;;;;;;;13.67;12.10;;;15.50;58.40;;;;;;5015291;28;20499;-70
2022/03/11 11:31:49;;;;;;;11.60;10.27;;;17.60;55.30;;;;;;5016004;28;20911;-70
2022/03/11 11:34:35;;;;;;;13.40;12.00;;;18.90;49.90;;;;;;5016375;28;20407;-70
2022/03/11 11:37:02;;;;;;;12.20;11.00;;;20.20;45.70;;;;;;5016028;28;20490;-71
2022/03/11 11:39:40;;;;;;;12.73;11.43;;;19.80;44.40;;;;;;5016095;28;20471;-71
2022/03/11 11:42:11;;;;;;;13.43;11.60;;;18.70;45.10;;;;;;5015181;28;20415;-70
2022/03/11 11:44:39;;;;;;;16.40;11.43;;;18.70;45.10;;;;;;5015792;28;20410;-71
2022/03/11 11:47:15;;;;;;;12.60;11.30;;;19.40;44.90;;;;;;5015682;28;20808;-70
2022/03/11 11:49:51;;;;;;;12.50;11.10;;;18.90;43.50;;;;;;5015325;28;20422;-71
2022/03/11 11:52:53;;;;;;;12.67;11.37;;;18.80;45.10;;;;;;5015393;28;21043;-70
2022/03/11 11:55:21;;;;;;;14.27;12.40;;;20.40;42.50;;;;;;5011589;28;20418;-70
2022/03/11 11:57:49;;;;;;;14.23;12.87;;;20.10;41.50;;;;;;5015180;28;20410;-70
2022/03/11 12:00:35;;;;;;;12.80;11.53;;;19.80;42.70;;;;;;5015456;28;20450;-71
2022/03/11 12:03:03;;;;;;;12.40;11.17;;;19.80;42.60;;;;;;5015365;28;20398;-71
2022/03/11 12:06:01;;;;;;;13.10;11.70;;;21.10;41.00;;;;;;5015347;28;20411;-71
2022/03/11 12:08:39;;;;;;;11.80;10.60;;;20.10;41.70;;;;;;5003821;28;21013;-71
2022/03/11 12:11:05;;;;;;;15.83;12.20;;;20.30;41.30;;;;;;5014061;28;20513;-72
2022/03/11 12:13:33;;;;;;;12.73;10.90;;;19.30;42.60;;;;;;5014958;28;20411;-71
2022/03/11 12:15:59;;;;;;;12.80;11.43;;;20.30;41.50;;;;;;5015280;28;20411;-70
2022/03/11 12:18:35;;;;;;;14.70;12.13;;;20.80;41.80;;;;;;5015756;28;20438;-70
2022/03/11 12:21:00;;;;;;;12.60;11.00;;;19.40;41.20;;;;;;5015008;28;20178;-72
2022/03/11 12:26:09;;;;;;;14.10;11.70;;;19.00;43.00;;;;;;5031500;22;20224;-70
2022/03/11 12:28:38;;;;;;;13.50;10.90;;;20.30;42.00;;;;;;5014139;28;20962;-71
2022/03/11 12:31:21;;;;;;;12.00;10.80;;;21.30;40.10;;;;;;5014588;28;20550;-71
2022/03/11 12:33:48;;;;;;;15.10;12.67;;;21.40;40.40;;;;;;5015167;28;20740;-71
2022/03/11 12:36:18;;;;;;;12.17;10.97;;;21.60;40.30;;;;;;5014324;28;20493;-71
2022/03/11 12:38:46;;;;;;;15.10;11.97;;;21.90;39.40;;;;;;5015985;28;20403;-71
2022/03/11 12:41:32;;;;;;;11.70;10.50;;;20.80;39.90;;;;;;5013542;28;20993;-71